createdAt,value
2022-10-25T00:00:30.517Z,13.20
2022-10-25T00:01:02.431Z,13.20
2022-10-25T00:01:39.337Z,13.20
2022-10-25T00:02:16.454Z,13.20
2022-10-25T00:02:48.531Z,13.20
2022-10-25T00:03:20.476Z,13.20
2022-10-25T00:03:53.347Z,13.20
2022-10-25T00:04:25.239Z,13.20
2022-10-25T00:04:57.115Z,13.20
2022-10-25T00:05:30.022Z,13.20
2022-10-25T00:06:01.853Z,13.20
2022-10-25T00:06:33.812Z,13.20
2022-10-25T00:07:06.684Z,13.20
2022-10-25T00:07:38.518Z,13.20
2022-10-25T00:08:12.124Z,13.20
2022-10-25T00:08:45.052Z,13.20
2022-10-25T00:09:16.899Z,13.20
2022-10-25T00:09:49.773Z,13.20
2022-10-25T00:10:24.873Z,13.20
2022-10-25T00:10:57.609Z,13.20
2022-10-25T00:11:31.683Z,13.20
2022-10-25T00:12:04.384Z,13.10
2022-10-25T00:12:41.908Z,13.10
2022-10-25T00:13:14.763Z,13.20
2022-10-25T00:13:48.863Z,13.20
2022-10-25T00:14:20.724Z,13.20
2022-10-25T00:14:54.097Z,13.10
2022-10-25T00:15:26.055Z,13.20
2022-10-25T00:15:57.975Z,13.20
2022-10-25T00:16:32.807Z,13.10
2022-10-25T00:17:04.725Z,13.20
2022-10-25T00:17:36.617Z,13.10
2022-10-25T00:18:09.449Z,13.10
2022-10-25T00:18:41.290Z,13.10
2022-10-25T00:19:14.218Z,13.00
2022-10-25T00:19:47.579Z,13.10
2022-10-25T00:20:20.145Z,13.10
2022-10-25T00:20:52.362Z,13.10
2022-10-25T00:21:25.467Z,13.10
2022-10-25T00:21:57.334Z,13.20
2022-10-25T00:22:29.273Z,13.20
2022-10-25T00:23:02.093Z,13.20
2022-10-25T00:23:35.396Z,13.20
2022-10-25T00:24:10.146Z,13.30
2022-10-25T00:24:42.962Z,13.20
2022-10-25T00:25:14.825Z,13.30
2022-10-25T00:25:46.701Z,13.30
2022-10-25T00:26:20.188Z,13.30
2022-10-25T00:26:52.047Z,13.30
2022-10-25T00:27:23.918Z,13.30
2022-10-25T00:27:56.809Z,13.30
2022-10-25T00:28:28.710Z,13.40
2022-10-25T00:29:00.638Z,13.30
2022-10-25T00:29:32.561Z,13.30
2022-10-25T00:30:06.501Z,13.40
2022-10-25T00:30:38.379Z,13.40
2022-10-25T00:31:12.001Z,13.40
2022-10-25T00:31:44.877Z,13.40
2022-10-25T00:32:16.705Z,13.40
2022-10-25T00:32:52.645Z,13.40
2022-10-25T00:33:25.443Z,13.40
2022-10-25T00:33:57.341Z,13.40
2022-10-25T00:34:29.275Z,13.40
2022-10-25T00:35:02.173Z,13.40
2022-10-25T00:35:35.894Z,13.40
2022-10-25T00:36:09.772Z,13.40
2022-10-25T00:36:41.674Z,13.40
2022-10-25T00:37:14.521Z,13.40
2022-10-25T00:37:46.479Z,13.40
2022-10-25T00:38:18.418Z,13.40
2022-10-25T00:38:53.363Z,13.30
2022-10-25T00:39:25.249Z,13.40
2022-10-25T00:39:57.124Z,13.40
2022-10-25T00:40:30.000Z,13.40
2022-10-25T00:41:02.491Z,13.40
2022-10-25T00:41:34.895Z,13.40
2022-10-25T00:42:09.232Z,13.40
2022-10-25T00:42:41.085Z,13.40
2022-10-25T00:43:31.583Z,13.40
2022-10-25T00:44:49.827Z,13.40
2022-10-25T00:45:24.059Z,13.40
2022-10-25T00:45:57.426Z,13.30
2022-10-25T00:46:31.706Z,13.40
2022-10-25T00:47:09.397Z,13.40
2022-10-25T00:47:46.089Z,13.30
2022-10-25T00:48:18.186Z,13.30
2022-10-25T00:48:55.125Z,13.30
2022-10-25T00:49:28.040Z,13.30
2022-10-25T00:50:05.610Z,13.30
2022-10-25T00:50:46.745Z,13.30
2022-10-25T00:51:20.316Z,13.30
2022-10-25T00:51:55.955Z,13.30
2022-10-25T00:52:29.693Z,13.30
2022-10-25T00:53:07.690Z,13.30
2022-10-25T00:53:41.006Z,13.30
2022-10-25T00:54:18.688Z,13.30
2022-10-25T00:54:53.422Z,13.30
2022-10-25T00:55:28.543Z,13.30
2022-10-25T00:56:05.717Z,13.30
2022-10-25T00:56:41.320Z,13.30
2022-10-25T00:57:16.122Z,13.30
2022-10-25T00:57:54.091Z,13.30
2022-10-25T00:58:29.787Z,13.30
2022-10-25T00:59:04.852Z,13.30
2022-10-25T00:59:37.532Z,13.30
2022-10-25T01:00:11.934Z,13.30
2022-10-25T01:00:45.663Z,13.30
2022-10-25T01:01:19.467Z,13.30
2022-10-25T01:01:52.819Z,13.30
2022-10-25T01:02:24.956Z,13.30
2022-10-25T01:02:57.881Z,13.30
2022-10-25T01:03:29.919Z,13.50
2022-10-25T01:04:06.721Z,13.30
2022-10-25T01:04:40.482Z,13.50
2022-10-25T01:05:12.928Z,13.30
2022-10-25T01:05:45.781Z,13.30
2022-10-25T01:06:24.256Z,13.30
2022-10-25T01:06:56.434Z,13.30
2022-10-25T01:07:28.318Z,13.30
2022-10-25T01:08:00.215Z,13.30
2022-10-25T01:08:34.236Z,13.30
2022-10-25T01:09:09.257Z,13.30
2022-10-25T01:09:43.066Z,13.30
2022-10-25T01:10:16.063Z,13.30
2022-10-25T01:10:48.552Z,13.30
2022-10-25T01:11:20.558Z,13.30
2022-10-25T01:11:53.725Z,13.30
2022-10-25T01:12:25.586Z,13.30
2022-10-25T01:12:57.707Z,13.30
2022-10-25T01:13:30.885Z,13.30
2022-10-25T01:14:02.886Z,13.30
2022-10-25T01:14:36.781Z,13.30
2022-10-25T01:15:10.851Z,13.30
2022-10-25T01:15:56.942Z,13.20
2022-10-25T01:16:34.629Z,13.20
2022-10-25T01:17:14.611Z,13.20
2022-10-25T01:17:55.586Z,13.20
2022-10-25T01:18:36.360Z,13.10
2022-10-25T01:19:25.854Z,13.10
2022-10-25T01:20:30.859Z,13.10
2022-10-25T01:21:29.246Z,13.10
2022-10-25T01:22:07.385Z,13.00
2022-10-25T01:22:45.661Z,13.00
2022-10-25T01:23:44.191Z,13.00
2022-10-25T01:25:03.556Z,13.00
2022-10-25T01:25:59.205Z,13.00
2022-10-25T01:26:52.536Z,12.90
2022-10-25T01:27:52.929Z,12.90
2022-10-25T01:28:36.278Z,12.90
2022-10-25T01:29:28.067Z,12.80
2022-10-25T01:30:08.042Z,12.90
2022-10-25T01:31:06.381Z,12.90
2022-10-25T01:31:45.077Z,12.90
2022-10-25T01:32:23.930Z,12.80
2022-10-25T01:33:14.532Z,12.80
2022-10-25T01:33:52.274Z,12.90
2022-10-25T01:34:29.443Z,12.90
2022-10-25T01:35:13.694Z,12.90
2022-10-25T01:35:54.103Z,12.90
2022-10-25T01:36:37.158Z,12.90
2022-10-25T01:37:16.893Z,12.90
2022-10-25T01:38:05.561Z,13.00
2022-10-25T01:38:42.609Z,13.00
2022-10-25T01:39:19.695Z,13.00
2022-10-25T01:39:58.265Z,13.00
2022-10-25T01:40:38.740Z,13.00
2022-10-25T01:41:22.297Z,13.00
2022-10-25T01:42:04.694Z,13.00
2022-10-25T01:42:45.178Z,13.10
2022-10-25T01:43:26.417Z,13.00
2022-10-25T01:44:10.706Z,13.00
2022-10-25T01:44:56.023Z,13.10
2022-10-25T01:45:30.289Z,13.10
2022-10-25T01:46:11.802Z,13.00
2022-10-25T01:46:50.453Z,13.10
2022-10-25T01:47:26.134Z,13.10
2022-10-25T01:48:06.068Z,13.00
2022-10-25T01:48:42.817Z,13.10
2022-10-25T01:49:19.314Z,13.00
2022-10-25T01:49:57.170Z,13.00
2022-10-25T01:50:31.431Z,13.00
2022-10-25T01:51:10.720Z,13.00
2022-10-25T01:51:43.690Z,13.00
2022-10-25T01:52:18.440Z,13.00
2022-10-25T01:52:50.564Z,13.00
2022-10-25T01:53:23.464Z,13.00
2022-10-25T01:53:55.647Z,13.10
2022-10-25T01:54:27.621Z,13.10
2022-10-25T01:55:00.543Z,13.00
2022-10-25T01:55:38.917Z,13.10
2022-10-25T01:56:15.618Z,13.10
2022-10-25T01:56:57.328Z,13.10
2022-10-25T01:57:53.682Z,13.10
2022-10-25T01:58:37.966Z,13.10
2022-10-25T01:59:39.452Z,13.00
2022-10-25T02:00:14.776Z,13.00
2022-10-25T02:00:54.674Z,13.00
2022-10-25T02:01:34.379Z,13.00
2022-10-25T02:02:12.534Z,13.00
2022-10-25T02:03:02.129Z,13.00
2022-10-25T02:03:39.345Z,13.00
2022-10-25T02:04:24.422Z,13.00
2022-10-25T02:05:07.934Z,13.00
2022-10-25T02:05:53.534Z,13.00
2022-10-25T02:06:34.520Z,13.00
2022-10-25T02:07:10.746Z,12.90
2022-10-25T02:07:47.517Z,12.90
2022-10-25T02:08:30.537Z,12.90
2022-10-25T02:09:07.758Z,12.90
2022-10-25T02:09:50.998Z,12.90
2022-10-25T02:10:28.522Z,12.90
2022-10-25T02:11:07.486Z,13.00
2022-10-25T02:11:39.825Z,13.00
2022-10-25T02:12:20.018Z,13.00
2022-10-25T02:12:57.270Z,13.00
2022-10-25T02:13:37.431Z,13.10
2022-10-25T02:14:20.674Z,13.00
2022-10-25T02:15:00.368Z,13.10
2022-10-25T02:15:37.922Z,13.10
2022-10-25T02:16:13.258Z,13.10
2022-10-25T02:16:50.578Z,13.10
2022-10-25T02:17:24.430Z,13.10
2022-10-25T02:18:01.126Z,13.10
2022-10-25T02:18:37.242Z,13.10
2022-10-25T02:19:13.607Z,13.10
2022-10-25T02:19:50.666Z,13.10
2022-10-25T02:20:25.372Z,13.10
2022-10-25T02:20:58.774Z,13.10
2022-10-25T02:21:34.197Z,13.10
2022-10-25T02:22:08.861Z,13.10
2022-10-25T02:22:40.957Z,13.10
2022-10-25T02:23:15.212Z,13.10
2022-10-25T02:23:49.995Z,13.10
2022-10-25T02:24:24.995Z,13.10
2022-10-25T02:24:58.318Z,13.10
2022-10-25T02:25:33.478Z,13.10
2022-10-25T02:26:07.802Z,13.10
2022-10-25T02:26:42.143Z,13.00
2022-10-25T02:27:16.239Z,13.00
2022-10-25T02:27:50.543Z,13.00
2022-10-25T02:28:26.808Z,13.00
2022-10-25T02:29:00.537Z,13.00
2022-10-25T02:29:34.392Z,13.00
2022-10-25T02:30:08.546Z,13.00
2022-10-25T02:30:43.826Z,13.00
2022-10-25T02:31:19.711Z,13.00
2022-10-25T02:31:54.005Z,13.00
2022-10-25T02:32:26.012Z,13.10
2022-10-25T02:32:58.316Z,12.90
2022-10-25T02:33:31.196Z,12.90
2022-10-25T02:34:03.611Z,12.90
2022-10-25T02:34:35.472Z,12.90
2022-10-25T02:35:15.271Z,12.80
2022-10-25T02:36:05.120Z,12.80
2022-10-25T02:36:38.482Z,12.80
2022-10-25T02:37:10.350Z,12.80
2022-10-25T02:37:42.520Z,12.80
2022-10-25T02:38:15.543Z,12.80
2022-10-25T02:38:49.045Z,12.70
2022-10-25T02:39:26.411Z,12.70
2022-10-25T02:40:02.276Z,12.80
2022-10-25T02:40:34.623Z,12.80
2022-10-25T02:41:06.700Z,12.80
2022-10-25T02:41:39.541Z,12.70
2022-10-25T02:42:11.510Z,12.70
2022-10-25T02:42:43.365Z,12.70
2022-10-25T02:43:16.196Z,12.70
2022-10-25T02:43:48.682Z,12.80
2022-10-25T02:44:20.988Z,12.70
2022-10-25T02:44:53.790Z,12.70
2022-10-25T02:45:25.638Z,12.70
2022-10-25T02:45:57.535Z,12.70
2022-10-25T02:46:30.382Z,12.70
2022-10-25T02:47:03.608Z,12.70
2022-10-25T02:47:35.583Z,12.70
2022-10-25T02:48:08.468Z,12.80
2022-10-25T02:48:40.702Z,12.70
2022-10-25T02:49:13.531Z,12.70
2022-10-25T02:49:45.373Z,12.70
2022-10-25T02:50:17.437Z,12.70
2022-10-25T02:50:50.461Z,12.60
2022-10-25T02:51:22.937Z,12.60
2022-10-25T02:51:55.778Z,12.70
2022-10-25T02:52:27.940Z,12.60
2022-10-25T02:52:59.762Z,12.60
2022-10-25T02:53:33.160Z,12.60
2022-10-25T02:54:05.259Z,12.60
2022-10-25T02:54:37.085Z,12.70
2022-10-25T02:55:10.233Z,12.70
2022-10-25T02:55:42.118Z,12.70
2022-10-25T02:56:15.961Z,12.70
2022-10-25T02:56:52.235Z,12.70
2022-10-25T02:57:24.253Z,12.80
2022-10-25T02:57:56.131Z,12.80
2022-10-25T02:58:29.774Z,12.70
2022-10-25T02:59:02.568Z,12.70
2022-10-25T02:59:34.465Z,12.80
2022-10-25T03:00:09.354Z,12.80
2022-10-25T03:00:42.310Z,12.80
2022-10-25T03:01:15.844Z,12.80
2022-10-25T03:01:49.401Z,12.90
2022-10-25T03:02:22.645Z,12.90
2022-10-25T03:02:54.502Z,12.90
2022-10-25T03:03:27.980Z,13.00
2022-10-25T03:03:59.834Z,12.90
2022-10-25T03:04:31.670Z,12.90
2022-10-25T03:05:04.750Z,13.00
2022-10-25T03:05:36.565Z,13.00
2022-10-25T03:06:10.494Z,13.00
2022-10-25T03:06:43.330Z,13.00
2022-10-25T03:07:15.161Z,13.10
2022-10-25T03:07:47.143Z,13.00
2022-10-25T03:08:20.429Z,13.00
2022-10-25T03:08:52.331Z,13.00
2022-10-25T03:09:24.212Z,13.00
2022-10-25T03:09:57.029Z,13.00
2022-10-25T03:10:28.922Z,13.10
2022-10-25T03:11:01.150Z,13.10
2022-10-25T03:11:33.961Z,13.10
2022-10-25T03:12:05.914Z,13.10
2022-10-25T03:12:37.790Z,13.10
2022-10-25T03:13:10.630Z,13.10
2022-10-25T03:13:42.510Z,13.10
2022-10-25T03:14:14.604Z,13.20
2022-10-25T03:14:47.455Z,13.10
2022-10-25T03:15:19.312Z,13.20
2022-10-25T03:15:51.214Z,13.10
2022-10-25T03:16:23.078Z,13.10
2022-10-25T03:16:55.886Z,13.10
2022-10-25T03:17:29.095Z,13.10
2022-10-25T03:18:00.901Z,13.10
2022-10-25T03:18:33.144Z,13.10
2022-10-25T03:19:05.967Z,13.20
2022-10-25T03:19:38.002Z,13.10
2022-10-25T03:20:10.495Z,13.20
2022-10-25T03:20:44.314Z,13.20
2022-10-25T03:21:16.162Z,13.20
2022-10-25T03:21:48.998Z,13.20
2022-10-25T03:22:20.845Z,13.20
2022-10-25T03:22:52.685Z,13.20
2022-10-25T03:23:24.894Z,13.20
2022-10-25T03:23:58.111Z,13.20
2022-10-25T03:24:29.979Z,13.30
2022-10-25T03:25:01.882Z,13.30
2022-10-25T03:25:34.766Z,13.30
2022-10-25T03:26:06.585Z,13.30
2022-10-25T03:26:38.443Z,13.30
2022-10-25T03:27:11.298Z,13.30
2022-10-25T03:27:43.158Z,13.30
2022-10-25T03:28:15.041Z,13.30
2022-10-25T03:28:47.889Z,13.30
2022-10-25T03:29:20.165Z,13.20
2022-10-25T03:29:51.986Z,13.20
2022-10-25T03:30:23.848Z,13.20
2022-10-25T03:30:57.407Z,13.20
2022-10-25T03:31:29.243Z,13.20
2022-10-25T03:32:01.104Z,13.20
2022-10-25T03:32:35.331Z,13.20
2022-10-25T03:33:07.163Z,13.20
2022-10-25T03:33:39.192Z,13.20
2022-10-25T03:34:11.992Z,13.20
2022-10-25T03:34:43.826Z,13.20
2022-10-25T03:35:15.714Z,13.20
2022-10-25T03:35:51.102Z,13.20
2022-10-25T03:36:23.927Z,13.20
2022-10-25T03:36:57.639Z,13.30
2022-10-25T03:37:29.491Z,13.30
2022-10-25T03:38:02.353Z,13.30
2022-10-25T03:38:34.201Z,13.30
2022-10-25T03:39:06.044Z,13.30
2022-10-25T03:39:37.947Z,13.30
2022-10-25T03:40:11.900Z,13.30
2022-10-25T03:40:44.170Z,13.30
2022-10-25T03:41:16.025Z,13.30
2022-10-25T03:41:48.975Z,13.30
2022-10-25T03:42:20.813Z,13.30
2022-10-25T03:42:52.733Z,13.30
2022-10-25T03:43:25.853Z,13.30
2022-10-25T03:43:57.698Z,13.30
2022-10-25T03:44:29.535Z,13.30
2022-10-25T03:45:02.433Z,13.30
2022-10-25T03:45:34.381Z,13.30
2022-10-25T03:46:06.368Z,13.30
2022-10-25T03:46:39.151Z,13.30
2022-10-25T03:47:11.006Z,13.30
2022-10-25T03:47:44.794Z,13.30
2022-10-25T03:48:17.920Z,13.30
2022-10-25T03:48:49.738Z,13.30
2022-10-25T03:49:21.794Z,13.30
2022-10-25T03:49:54.615Z,13.30
2022-10-25T03:50:26.513Z,13.30
2022-10-25T03:50:58.402Z,13.30
2022-10-25T03:51:31.228Z,13.30
2022-10-25T03:52:05.155Z,13.30
2022-10-25T03:52:37.049Z,13.40
2022-10-25T03:53:11.061Z,13.30
2022-10-25T03:53:42.958Z,13.30
2022-10-25T03:54:14.801Z,13.30
2022-10-25T03:54:47.640Z,13.40
2022-10-25T03:55:19.724Z,13.40
2022-10-25T03:55:51.565Z,13.30
2022-10-25T03:56:24.462Z,13.40
2022-10-25T03:56:56.294Z,13.30
2022-10-25T03:57:28.231Z,13.40
2022-10-25T03:58:01.193Z,13.40
2022-10-25T03:58:33.075Z,13.40
2022-10-25T03:59:04.940Z,13.40
2022-10-25T03:59:37.812Z,13.40
2022-10-25T04:00:10.594Z,13.40
2022-10-25T04:00:42.522Z,13.40
2022-10-25T04:01:15.596Z,13.40
2022-10-25T04:01:47.670Z,13.40
2022-10-25T04:02:19.630Z,13.40
2022-10-25T04:03:00.936Z,13.40
2022-10-25T04:03:34.227Z,13.40
2022-10-25T04:04:06.055Z,13.40
2022-10-25T04:04:38.973Z,13.40
2022-10-25T04:05:10.858Z,13.40
2022-10-25T04:05:42.697Z,13.40
2022-10-25T04:06:15.531Z,13.40
2022-10-25T04:06:47.371Z,13.50
2022-10-25T04:07:19.424Z,13.50
2022-10-25T04:07:52.263Z,13.50
2022-10-25T04:08:24.148Z,13.50
2022-10-25T04:08:57.407Z,13.50
2022-10-25T04:09:30.286Z,13.50
2022-10-25T04:10:02.151Z,13.50
2022-10-25T04:10:34.072Z,13.50
2022-10-25T04:11:07.209Z,13.50
2022-10-25T04:11:39.144Z,13.50
2022-10-25T04:12:11.065Z,13.50
2022-10-25T04:12:43.986Z,13.40
2022-10-25T04:13:15.959Z,13.50
2022-10-25T04:13:47.801Z,13.40
2022-10-25T04:14:20.682Z,13.40
2022-10-25T04:14:52.557Z,13.50
2022-10-25T04:15:24.983Z,13.40
2022-10-25T04:15:57.786Z,13.40
2022-10-25T04:16:29.618Z,13.40
2022-10-25T04:17:01.459Z,13.40
2022-10-25T04:17:34.334Z,13.40
2022-10-25T04:18:07.693Z,13.40
2022-10-25T04:18:39.547Z,13.40
2022-10-25T04:19:12.424Z,13.50
2022-10-25T04:19:44.744Z,13.40
2022-10-25T04:20:16.912Z,13.40
2022-10-25T04:20:49.745Z,13.40
2022-10-25T04:21:22.165Z,13.40
2022-10-25T04:21:54.041Z,13.40
2022-10-25T04:22:25.960Z,13.40
2022-10-25T04:22:59.159Z,13.40
2022-10-25T04:24:17.237Z,13.40
2022-10-25T04:24:49.060Z,13.40
2022-10-25T04:25:20.963Z,13.40
2022-10-25T04:25:56.475Z,13.40
2022-10-25T04:26:29.071Z,13.40
2022-10-25T04:27:00.898Z,13.50
2022-10-25T04:27:33.735Z,13.40
2022-10-25T04:28:05.529Z,13.40
2022-10-25T04:28:37.317Z,13.40
2022-10-25T04:29:12.045Z,13.40
2022-10-25T04:29:43.829Z,13.40
2022-10-25T04:30:15.791Z,13.40
2022-10-25T04:30:48.599Z,13.40
2022-10-25T04:31:21.554Z,13.40
2022-10-25T04:31:53.369Z,13.40
2022-10-25T04:32:26.115Z,13.30
2022-10-25T04:32:57.944Z,13.30
2022-10-25T04:33:29.761Z,13.30
2022-10-25T04:34:02.614Z,13.30
2022-10-25T04:34:34.394Z,13.30
2022-10-25T04:35:06.839Z,13.30
2022-10-25T04:35:39.578Z,13.30
2022-10-25T04:36:11.365Z,13.30
2022-10-25T04:36:43.130Z,13.20
2022-10-25T04:37:16.277Z,13.20
2022-10-25T04:37:48.130Z,13.30
2022-10-25T04:38:20.916Z,13.30
2022-10-25T04:38:53.322Z,13.30
2022-10-25T04:39:27.477Z,13.30
2022-10-25T04:39:59.244Z,13.30
2022-10-25T04:40:31.161Z,13.30
2022-10-25T04:41:03.902Z,13.30
2022-10-25T04:41:35.685Z,13.30
2022-10-25T04:42:19.635Z,13.30
2022-10-25T04:42:52.510Z,13.30
2022-10-25T04:43:25.121Z,13.30
2022-10-25T04:43:57.393Z,13.20
2022-10-25T04:44:30.173Z,13.30
2022-10-25T04:45:02.068Z,13.20
2022-10-25T04:45:33.857Z,13.20
2022-10-25T04:46:06.976Z,13.20
2022-10-25T04:46:38.764Z,13.20
2022-10-25T04:47:10.681Z,13.30
2022-10-25T04:47:43.458Z,13.20
2022-10-25T04:48:15.492Z,13.20
2022-10-25T04:48:47.734Z,13.30
2022-10-25T04:49:20.568Z,13.20
2022-10-25T04:49:52.362Z,13.20
2022-10-25T04:50:24.169Z,13.20
2022-10-25T04:50:59.793Z,13.20
2022-10-25T04:51:31.616Z,13.20
2022-10-25T04:52:03.440Z,13.20
2022-10-25T04:52:36.203Z,13.10
2022-10-25T04:53:07.974Z,13.20
2022-10-25T04:53:39.998Z,13.10
2022-10-25T04:54:13.349Z,13.10
2022-10-25T04:54:46.485Z,13.10
2022-10-25T04:55:18.253Z,13.10
2022-10-25T04:55:57.099Z,13.10
2022-10-25T04:56:29.472Z,13.00
2022-10-25T04:57:01.292Z,13.00
2022-10-25T04:57:34.046Z,13.00
2022-10-25T04:58:05.888Z,13.00
2022-10-25T04:58:37.844Z,13.00
2022-10-25T04:59:10.690Z,12.90
2022-10-25T04:59:42.461Z,12.90
2022-10-25T05:00:14.650Z,12.90
2022-10-25T05:00:48.133Z,12.90
2022-10-25T05:01:20.086Z,12.90
2022-10-25T05:02:29.650Z,12.90
2022-10-25T05:03:01.456Z,12.90
2022-10-25T05:03:33.931Z,12.90
2022-10-25T05:04:06.678Z,12.90
2022-10-25T05:04:38.491Z,12.80
2022-10-25T05:05:10.322Z,12.90
2022-10-25T05:05:43.082Z,12.90
2022-10-25T05:06:17.692Z,12.80
2022-10-25T05:06:50.428Z,12.90
2022-10-25T05:07:22.436Z,12.80
2022-10-25T05:07:54.214Z,12.90
2022-10-25T05:08:26.932Z,12.90
2022-10-25T05:08:58.733Z,12.80
2022-10-25T05:09:31.499Z,12.80
2022-10-25T05:10:05.177Z,12.80
2022-10-25T05:10:36.953Z,12.80
2022-10-25T05:11:10.971Z,12.80
2022-10-25T05:11:42.724Z,12.80
2022-10-25T05:12:14.881Z,12.80
2022-10-25T05:12:47.898Z,12.80
2022-10-25T05:13:19.980Z,12.80
2022-10-25T05:13:52.193Z,12.80
2022-10-25T05:14:24.946Z,12.80
2022-10-25T05:14:56.713Z,12.80
2022-10-25T05:15:28.678Z,12.80
2022-10-25T05:16:01.483Z,12.80
2022-10-25T05:16:35.117Z,12.80
2022-10-25T05:17:06.923Z,12.80
2022-10-25T05:17:39.644Z,12.80
2022-10-25T05:18:11.422Z,12.80
2022-10-25T05:18:45.511Z,12.80
2022-10-25T05:19:18.337Z,12.80
2022-10-25T05:19:50.144Z,12.80
2022-10-25T05:20:21.897Z,12.80
2022-10-25T05:20:54.912Z,12.80
2022-10-25T05:21:30.051Z,12.80
2022-10-25T05:22:02.861Z,12.80
2022-10-25T05:22:34.629Z,12.80
2022-10-25T05:23:06.405Z,12.80
2022-10-25T05:23:39.219Z,12.80
2022-10-25T05:24:11.002Z,12.80
2022-10-25T05:24:43.739Z,12.80
2022-10-25T05:25:17.174Z,12.80
2022-10-25T05:25:49.185Z,12.80
2022-10-25T05:26:22.212Z,12.80
2022-10-25T05:26:54.001Z,12.90
2022-10-25T05:27:26.207Z,12.80
2022-10-25T05:27:58.937Z,12.90
2022-10-25T05:28:30.739Z,12.90
2022-10-25T05:29:05.518Z,12.90
2022-10-25T05:29:40.730Z,12.90
2022-10-25T05:30:12.872Z,12.90
2022-10-25T05:30:44.985Z,12.90
2022-10-25T05:31:20.080Z,12.90
2022-10-25T05:31:51.917Z,12.90
2022-10-25T05:32:23.723Z,12.90
2022-10-25T05:32:56.570Z,12.90
2022-10-25T05:33:28.438Z,12.90
2022-10-25T05:34:02.586Z,12.90
2022-10-25T05:34:34.647Z,12.90
2022-10-25T05:35:07.087Z,12.90
2022-10-25T05:35:40.058Z,12.90
2022-10-25T05:36:13.012Z,13.00
2022-10-25T05:36:45.835Z,13.00
2022-10-25T05:37:17.630Z,13.00
2022-10-25T05:37:49.457Z,13.00
2022-10-25T05:38:22.191Z,13.00
2022-10-25T05:38:54.067Z,13.00
2022-10-25T05:39:27.049Z,13.00
2022-10-25T05:39:58.826Z,13.00
2022-10-25T05:40:31.947Z,13.00
2022-10-25T05:41:04.843Z,13.00
2022-10-25T05:41:37.419Z,13.00
2022-10-25T05:42:10.334Z,13.00
2022-10-25T05:42:42.154Z,13.00
2022-10-25T05:43:13.954Z,13.10
2022-10-25T05:43:47.131Z,13.10
2022-10-25T05:44:18.974Z,13.10
2022-10-25T05:44:50.720Z,13.10
2022-10-25T05:45:22.537Z,13.10
2022-10-25T05:46:03.492Z,13.10
2022-10-25T05:46:35.329Z,13.10
2022-10-25T05:47:07.211Z,13.10
2022-10-25T05:47:40.041Z,13.10
2022-10-25T05:48:12.325Z,13.20
2022-10-25T05:48:48.634Z,13.20
2022-10-25T05:49:21.447Z,13.10
2022-10-25T05:49:53.377Z,13.20
2022-10-25T05:50:26.184Z,13.20
2022-10-25T05:51:21.062Z,13.20
2022-10-25T05:52:01.465Z,13.10
2022-10-25T05:52:33.276Z,13.10
2022-10-25T05:53:06.064Z,13.20
2022-10-25T05:53:41.361Z,13.20
2022-10-25T05:54:17.181Z,13.20
2022-10-25T05:54:49.009Z,13.20
2022-10-25T05:55:20.821Z,13.30
2022-10-25T05:55:53.953Z,13.20
2022-10-25T05:56:28.432Z,13.30
2022-10-25T05:57:00.236Z,13.30
2022-10-25T05:57:33.233Z,13.30
2022-10-25T05:58:05.253Z,13.30
2022-10-25T05:58:37.209Z,13.20
2022-10-25T05:59:11.527Z,13.30
2022-10-25T05:59:43.363Z,13.20
2022-10-25T06:00:18.932Z,13.20
2022-10-25T06:00:51.823Z,13.20
2022-10-25T06:01:26.359Z,13.20
2022-10-25T06:01:59.593Z,13.20
2022-10-25T06:02:31.634Z,13.20
2022-10-25T06:03:03.684Z,13.20
2022-10-25T06:03:35.597Z,13.30
2022-10-25T06:04:09.635Z,13.40
2022-10-25T06:04:41.538Z,13.30
2022-10-25T06:05:13.579Z,13.40
2022-10-25T06:05:46.328Z,13.30
2022-10-25T06:06:19.340Z,13.30
2022-10-25T06:06:53.046Z,13.30
2022-10-25T06:07:25.060Z,13.30
2022-10-25T06:07:56.825Z,13.30
2022-10-25T06:08:29.854Z,13.30
2022-10-25T06:09:01.958Z,13.30
2022-10-25T06:09:34.749Z,13.30
2022-10-25T06:10:10.446Z,13.50
2022-10-25T06:10:42.706Z,13.30
2022-10-25T06:11:18.960Z,13.30
2022-10-25T06:11:50.763Z,13.30
2022-10-25T06:12:23.545Z,13.30
2022-10-25T06:12:55.299Z,13.30
2022-10-25T06:13:27.106Z,13.30
2022-10-25T06:14:00.195Z,13.30
2022-10-25T06:14:31.985Z,13.20
2022-10-25T06:15:04.389Z,13.20
2022-10-25T06:15:38.050Z,13.20
2022-10-25T06:16:12.320Z,13.20
2022-10-25T06:16:45.214Z,13.20
2022-10-25T06:17:16.999Z,13.20
2022-10-25T06:17:48.813Z,13.30
2022-10-25T06:18:21.570Z,13.30
2022-10-25T06:18:53.857Z,13.30
2022-10-25T06:19:26.610Z,13.30
2022-10-25T06:19:58.562Z,13.30
2022-10-25T06:20:30.553Z,13.30
2022-10-25T06:21:04.278Z,13.30
2022-10-25T06:21:36.638Z,13.30
2022-10-25T06:22:08.497Z,13.30
2022-10-25T06:22:41.277Z,13.30
2022-10-25T06:23:13.112Z,13.30
2022-10-25T06:23:46.330Z,13.40
2022-10-25T06:24:19.112Z,13.30
2022-10-25T06:24:50.913Z,13.30
2022-10-25T06:25:22.693Z,13.30
2022-10-25T06:26:01.060Z,13.30
2022-10-25T06:26:34.227Z,13.30
2022-10-25T06:27:06.979Z,13.30
2022-10-25T06:27:38.806Z,13.30
2022-10-25T06:28:10.687Z,13.30
2022-10-25T06:28:43.702Z,13.30
2022-10-25T06:29:15.518Z,13.30
2022-10-25T06:29:48.253Z,13.30
2022-10-25T06:30:20.087Z,13.30
2022-10-25T06:30:51.959Z,13.30
2022-10-25T06:31:25.101Z,13.30
2022-10-25T06:31:56.923Z,13.30
2022-10-25T06:32:28.766Z,13.30
2022-10-25T06:33:01.532Z,13.30
2022-10-25T06:33:34.101Z,13.30
2022-10-25T06:34:07.066Z,13.30
2022-10-25T06:34:38.864Z,13.40
2022-10-25T06:35:10.685Z,13.40
2022-10-25T06:35:42.494Z,13.40
2022-10-25T06:36:17.202Z,13.40
2022-10-25T06:36:48.978Z,13.40
2022-10-25T06:37:20.765Z,13.40
2022-10-25T06:37:53.506Z,13.40
2022-10-25T06:38:26.906Z,13.40
2022-10-25T06:39:05.406Z,13.40
2022-10-25T06:39:38.606Z,13.40
2022-10-25T06:40:11.368Z,13.30
2022-10-25T06:40:44.165Z,13.30
2022-10-25T06:41:17.920Z,13.30
2022-10-25T06:41:52.013Z,13.30
2022-10-25T06:42:29.146Z,13.30
2022-10-25T06:43:02.483Z,13.30
2022-10-25T06:43:34.899Z,13.30
2022-10-25T06:44:08.056Z,13.30
2022-10-25T06:44:39.903Z,13.30
2022-10-25T06:45:11.739Z,13.30
2022-10-25T06:45:44.495Z,13.30
2022-10-25T06:46:20.684Z,13.30
2022-10-25T06:47:46.122Z,13.30
2022-10-25T06:48:18.916Z,13.30
2022-10-25T06:48:52.408Z,13.30
2022-10-25T06:49:25.428Z,13.30
2022-10-25T06:49:57.274Z,13.30
2022-10-25T06:50:30.129Z,13.30
2022-10-25T06:51:03.471Z,13.30
2022-10-25T06:51:36.224Z,13.40
2022-10-25T06:52:08.273Z,13.40
2022-10-25T06:52:41.044Z,13.40
2022-10-25T06:53:12.986Z,13.40
2022-10-25T06:53:44.909Z,13.40
2022-10-25T06:54:17.879Z,13.40
2022-10-25T06:54:49.651Z,13.40
2022-10-25T06:55:21.497Z,13.40
2022-10-25T06:55:54.251Z,13.40
2022-10-25T06:56:27.035Z,13.50
2022-10-25T06:57:01.545Z,13.50
2022-10-25T06:57:33.329Z,13.50
2022-10-25T06:58:05.128Z,13.50
2022-10-25T06:58:38.417Z,13.50
2022-10-25T06:59:10.239Z,13.50
2022-10-25T06:59:42.973Z,13.60
2022-10-25T07:00:15.335Z,13.60
2022-10-25T07:00:49.563Z,13.60
2022-10-25T07:01:24.360Z,13.60
2022-10-25T07:01:57.234Z,13.60
2022-10-25T07:02:29.340Z,13.60
2022-10-25T07:03:02.193Z,13.60
2022-10-25T07:03:35.152Z,13.60
2022-10-25T07:04:07.937Z,13.60
2022-10-25T07:04:39.873Z,13.60
2022-10-25T07:05:12.650Z,13.60
2022-10-25T07:05:44.447Z,13.60
2022-10-25T07:06:19.015Z,13.60
2022-10-25T07:06:54.312Z,13.60
2022-10-25T07:07:28.161Z,13.60
2022-10-25T07:08:01.998Z,13.50
2022-10-25T07:08:34.677Z,13.50
2022-10-25T07:09:09.351Z,13.50
2022-10-25T07:09:41.250Z,13.50
2022-10-25T07:10:14.178Z,13.50
2022-10-25T07:10:53.361Z,13.50
2022-10-25T07:11:28.095Z,13.50
2022-10-25T07:12:01.343Z,13.50
2022-10-25T07:12:37.952Z,13.50
2022-10-25T07:13:09.719Z,13.50
2022-10-25T07:13:42.524Z,13.50
2022-10-25T07:14:14.391Z,13.50
2022-10-25T07:14:47.178Z,13.50
2022-10-25T07:15:51.825Z,13.60
2022-10-25T07:16:25.606Z,13.50
2022-10-25T07:16:57.662Z,13.60
2022-10-25T07:17:30.443Z,13.60
2022-10-25T07:18:02.243Z,13.60
2022-10-25T07:18:35.687Z,13.60
2022-10-25T07:19:09.974Z,13.60
2022-10-25T07:19:41.866Z,13.60
2022-10-25T07:20:13.681Z,13.70
2022-10-25T07:20:48.438Z,13.70
2022-10-25T07:21:22.066Z,13.70
2022-10-25T07:21:54.854Z,13.70
2022-10-25T07:22:27.048Z,13.70